Time;durP1;ratioP1;P1;durP2;ratioP2;P2;SDS_P1;SDS_P2;PMS_P1;PMS_P2;Temp;Humidity;BMP_temperature;BMP_pressure;BME280_temperature;BME280_humidity;BME280_pressure;Samples;Min_cycle;Max_cycle;Signal;HPM_P1;HPM_P2
2024/03/31 07:18:51;;;;;;;5.43;1.58;;;;;;;;;;5144952;23;20107;-81
2024/03/31 07:21:17;;;;;;;10.18;2.00;;;;;;;;;;5054892;28;20385;-81
2024/03/31 07:23:46;;;;;;;8.32;1.63;;;11.10;99.90;;;;;;5048143;28;20483;-81
2024/03/31 07:26:16;;;;;;;9.30;1.80;;;11.20;99.90;;;;;;5052245;28;20025;-81
2024/03/31 07:28:42;;;;;;;8.43;1.65;;;;;;;;;;5049793;28;20017;-80
2024/03/31 07:31:15;;;;;;;10.57;1.63;;;11.20;99.90;;;;;;5039423;28;20041;-81
2024/03/31 07:33:47;;;;;;;9.23;1.70;;;;;;;;;;5042390;28;20021;-80
2024/03/31 07:36:13;;;;;;;10.77;1.95;;;;;;;;;;5041969;28;20083;-80
2024/03/31 07:38:40;;;;;;;10.25;2.78;;;;;;;;;;5049517;28;20025;-81
2024/03/31 07:41:06;;;;;;;6.85;1.88;;;;;;;;;;5046333;28;20413;-80
2024/03/31 07:43:32;;;;;;;13.25;2.25;;;;;;;;;;5053961;28;20399;-80
2024/03/31 07:46:50;;;;;;;13.45;2.72;;;11.80;99.90;;;;;;5044957;28;20100;-81
2024/03/31 07:52:48;;;;;;;9.93;2.03;;;12.10;99.90;;;;;;5051632;28;20036;-82
2024/03/31 07:55:19;;;;;;;8.85;1.90;;;12.20;99.90;;;;;;5043931;28;20176;-83
2024/03/31 07:57:57;;;;;;;6.60;1.57;;;12.20;99.90;;;;;;5042973;28;20086;-81
2024/03/31 08:01:00;;;;;;;8.27;1.40;;;12.40;99.90;;;;;;5049018;28;20021;-81
2024/03/31 08:03:28;;;;;;;9.98;1.80;;;;;;;;;;5037398;28;20025;-81
2024/03/31 08:05:54;;;;;;;7.85;1.52;;;;;;;;;;5046127;28;20082;-81
2024/03/31 08:08:21;;;;;;;8.07;1.80;;;;;;;;;;5045345;28;20032;-81
2024/03/31 08:10:47;;;;;;;8.20;1.70;;;12.60;99.90;;;;;;5046888;28;20067;-81
2024/03/31 08:13:13;;;;;;;12.80;1.73;;;;;;;;;;5041263;28;20029;-81
2024/03/31 08:15:44;;;;;;;9.70;1.52;;;12.60;99.90;;;;;;5039706;28;20025;-83
2024/03/31 08:18:11;;;;;;;11.10;1.95;;;12.60;99.90;;;;;;5045035;28;20070;-82
2024/03/31 08:20:41;;;;;;;11.40;1.80;;;12.60;99.90;;;;;;5050709;28;20493;-81
2024/03/31 08:23:09;;;;;;;7.03;1.30;;;12.60;99.90;;;;;;5047426;28;20034;-81
2024/03/31 08:25:37;;;;;;;6.22;1.20;;;10.70;99.90;;;;;;5047036;28;20032;-81
2024/03/31 08:28:04;;;;;;;9.35;1.63;;;12.60;99.90;;;;;;5048196;28;20036;-81
2024/03/31 08:30:30;;;;;;;8.90;1.30;;;;;;;;;;5041857;28;20029;-81
2024/03/31 08:33:00;;;;;;;5.10;1.48;;;;;;;;;;5042086;28;20033;-82
2024/03/31 08:35:27;;;;;;;8.88;1.40;;;13.20;99.90;;;;;;5042119;28;20039;-82
2024/03/31 08:37:53;;;;;;;7.93;1.60;;;;;;;;;;5038618;28;20548;-82
2024/03/31 08:40:22;;;;;;;8.77;1.65;;;13.40;99.90;;;;;;5038348;28;20033;-82
2024/03/31 08:43:05;;;;;;;10.73;1.33;;;13.40;99.90;;;;;;5042450;28;20018;-82
2024/03/31 08:45:34;;;;;;;3.97;1.52;;;13.40;99.90;;;;;;5046242;28;20025;-83
2024/03/31 08:48:04;;;;;;;4.85;1.50;;;13.40;99.90;;;;;;5049140;28;20044;-82
2024/03/31 08:50:32;;;;;;;6.13;1.85;;;13.40;99.90;;;;;;5036914;28;20033;-82
2024/03/31 08:53:01;;;;;;;7.30;1.30;;;13.40;99.90;;;;;;5049163;28;20060;-81
2024/03/31 08:55:27;;;;;;;8.55;1.35;;;13.50;99.90;;;;;;5045365;28;20113;-82
2024/03/31 08:57:54;;;;;;;10.13;1.50;;;13.50;99.90;;;;;;5046853;28;20025;-83
2024/03/31 09:00:20;;;;;;;6.70;1.60;;;;;;;;;;5053088;28;20533;-82
2024/03/31 09:02:47;;;;;;;10.55;1.33;;;;;;;;;;5034059;28;20021;-81
2024/03/31 09:05:14;;;;;;;4.50;1.10;;;;;;;;;;5042696;28;20026;-82
2024/03/31 09:07:41;;;;;;;7.50;1.48;;;13.50;99.90;;;;;;5046858;28;20387;-82
2024/03/31 09:10:08;;;;;;;5.60;1.20;;;13.60;99.90;;;;;;5050968;28;20021;-81
2024/03/31 09:12:35;;;;;;;5.07;1.05;;;;;;;;;;5045602;28;20025;-82
2024/03/31 09:15:05;;;;;;;6.40;1.58;;;13.60;99.90;;;;;;5044131;28;20364;-81
2024/03/31 09:17:34;;;;;;;7.63;1.83;;;13.60;99.90;;;;;;5050260;28;20021;-81
2024/03/31 09:20:08;;;;;;;9.55;1.70;;;14.40;99.90;;;;;;5042581;28;20296;-82
2024/03/31 09:22:45;;;;;;;9.55;2.28;;;13.60;99.90;;;;;;5038282;28;20052;-81
2024/03/31 09:25:13;;;;;;;7.85;1.60;;;13.60;99.90;;;;;;5043827;28;20033;-82
2024/03/31 09:27:40;;;;;;;9.45;1.80;;;13.60;99.90;;;;;;5037224;28;20025;-81
2024/03/31 09:30:07;;;;;;;7.10;1.58;;;13.60;99.90;;;;;;5042067;28;20032;-81
2024/03/31 09:32:34;;;;;;;8.07;1.17;;;13.60;99.90;;;;;;5045708;28;20479;-81
2024/03/31 09:35:00;;;;;;;8.52;1.55;;;13.50;99.90;;;;;;5044608;28;20033;-81
2024/03/31 09:37:28;;;;;;;7.85;1.73;;;13.50;99.90;;;;;;5041408;28;20033;-81
2024/03/31 09:39:54;;;;;;;8.23;1.70;;;;;;;;;;5043301;28;20576;-81
2024/03/31 09:42:20;;;;;;;9.15;1.70;;;;;;;;;;5042358;28;20394;-81
2024/03/31 09:44:47;;;;;;;7.60;1.40;;;13.50;99.90;;;;;;5037061;28;20068;-81
2024/03/31 09:47:29;;;;;;;12.88;1.95;;;13.60;99.90;;;;;;5044162;28;20022;-81
2024/03/31 09:50:01;;;;;;;7.50;1.85;;;13.60;99.90;;;;;;5058422;28;20124;-81
2024/03/31 09:52:33;;;;;;;7.70;1.67;;;13.60;99.90;;;;;;5045924;28;20036;-82
2024/03/31 09:55:06;;;;;;;10.02;1.73;;;13.70;99.90;;;;;;5045316;28;20021;-82
2024/03/31 09:57:42;;;;;;;9.60;1.75;;;13.80;99.90;;;;;;5037079;28;20032;-80
2024/03/31 10:00:15;;;;;;;11.65;2.10;;;13.90;99.90;;;;;;5046628;28;20025;-82
2024/03/31 10:03:00;;;;;;;7.78;1.73;;;14.00;99.90;;;;;;5048650;28;20022;-80
2024/03/31 10:05:32;;;;;;;7.25;1.70;;;14.00;99.90;;;;;;5044744;28;20037;-82
2024/03/31 10:08:03;;;;;;;12.90;2.22;;;14.00;99.90;;;;;;5035066;28;20029;-81
2024/03/31 10:10:36;;;;;;;9.02;2.47;;;12.60;99.90;;;;;;5050097;28;20041;-82
2024/03/31 10:13:22;;;;;;;10.90;2.38;;;14.20;99.90;;;;;;5048484;28;20041;-82
2024/03/31 10:15:50;;;;;;;11.07;1.92;;;14.50;99.90;;;;;;5043969;28;20025;-83
2024/03/31 10:18:19;;;;;;;11.40;2.20;;;14.70;99.90;;;;;;5058484;28;20045;-81
2024/03/31 10:21:02;;;;;;;16.38;2.47;;;15.00;99.90;;;;;;5046643;28;20025;-82
2024/03/31 10:23:34;;;;;;;7.80;1.70;;;14.90;99.90;;;;;;5046619;28;20025;-81
2024/03/31 10:26:01;;;;;;;12.48;2.42;;;15.10;99.90;;;;;;5042105;28;20059;-81
2024/03/31 10:28:32;;;;;;;16.17;3.05;;;15.20;99.90;;;;;;5049698;28;20112;-81
2024/03/31 10:31:20;;;;;;;9.38;1.80;;;15.40;99.90;;;;;;5056465;28;20041;-81
2024/03/31 10:33:51;;;;;;;12.45;1.88;;;15.40;99.90;;;;;;5054811;28;20091;-81
2024/03/31 10:36:20;;;;;;;9.15;2.17;;;15.70;99.90;;;;;;5044292;28;20048;-80
2024/03/31 10:38:53;;;;;;;11.55;2.03;;;15.70;99.90;;;;;;5044201;28;20037;-82
2024/03/31 10:41:21;;;;;;;12.20;2.28;;;15.80;99.90;;;;;;5042243;28;20030;-81
2024/03/31 10:43:47;;;;;;;12.18;2.90;;;15.80;99.90;;;;;;5037698;28;20076;-81
2024/03/31 10:46:14;;;;;;;12.45;1.88;;;;;;;;;;5049182;28;20047;-81
2024/03/31 10:48:41;;;;;;;11.10;2.20;;;15.90;99.90;;;;;;5049316;28;20021;-81
2024/03/31 10:51:17;;;;;;;11.43;2.22;;;15.90;99.90;;;;;;5047762;28;20029;-81
2024/03/31 10:53:43;;;;;;;18.52;2.30;;;;;;;;;;5048313;28;20029;-81
2024/03/31 10:56:10;;;;;;;13.38;2.28;;;16.10;99.90;;;;;;5050427;28;20033;-82
2024/03/31 10:58:39;;;;;;;13.75;2.15;;;16.20;99.90;;;;;;5031668;28;20044;-81
2024/03/31 11:01:06;;;;;;;20.30;2.75;;;;;;;;;;5050113;28;20152;-81
2024/03/31 11:03:33;;;;;;;15.00;2.38;;;;;;;;;;5045417;28;20032;-81
2024/03/31 11:06:03;;;;;;;15.75;2.55;;;16.60;99.90;;;;;;5043164;28;20163;-82
2024/03/31 11:08:30;;;;;;;18.60;2.80;;;;;;;;;;5043865;28;20033;-81
2024/03/31 11:10:56;;;;;;;18.23;2.30;;;16.60;99.90;;;;;;5052235;28;20037;-81
2024/03/31 11:13:28;;;;;;;10.48;1.90;;;16.60;99.90;;;;;;5048327;28;20043;-81
2024/03/31 11:15:57;;;;;;;14.20;2.13;;;16.70;99.90;;;;;;5050801;28;20033;-81
2024/03/31 11:18:31;;;;;;;16.95;2.13;;;16.60;99.90;;;;;;5052660;28;20031;-81
2024/03/31 11:21:06;;;;;;;14.13;2.72;;;16.40;99.90;;;;;;5049041;28;20025;-81
2024/03/31 11:23:38;;;;;;;16.58;2.65;;;16.40;99.90;;;;;;5041847;28;20025;-82
2024/03/31 11:26:06;;;;;;;11.43;2.33;;;16.30;99.90;;;;;;5050259;28;20476;-81
2024/03/31 11:28:33;;;;;;;15.13;2.65;;;16.20;99.90;;;;;;5046163;28;20033;-81
2024/03/31 11:31:00;;;;;;;13.43;1.95;;;;;;;;;;5047509;28;20514;-81
2024/03/31 11:33:27;;;;;;;16.67;2.38;;;16.60;99.90;;;;;;5039398;28;20064;-81
2024/03/31 11:35:55;;;;;;;11.95;2.33;;;16.50;99.90;;;;;;5036390;28;20032;-80
2024/03/31 11:38:23;;;;;;;10.25;2.17;;;16.90;99.90;;;;;;5044668;28;20045;-81
2024/03/31 11:40:49;;;;;;;15.40;2.50;;;;;;;;;;5039530;28;20026;-82
2024/03/31 11:43:16;;;;;;;10.88;1.75;;;17.30;99.90;;;;;;5045222;28;20041;-81
2024/03/31 11:45:44;;;;;;;16.60;2.80;;;17.50;99.90;;;;;;5045141;28;20151;-82
2024/03/31 11:48:10;;;;;;;11.68;1.95;;;;;;;;;;5048798;28;20515;-81
2024/03/31 11:51:01;;;;;;;19.25;2.63;;;17.50;99.90;;;;;;5044925;28;20170;-81
2024/03/31 11:53:30;;;;;;;16.60;2.30;;;17.50;99.90;;;;;;5044191;28;20032;-81
2024/03/31 11:56:55;;;;;;;17.25;2.70;;;16.60;99.90;;;;;;5041778;28;20113;-81
2024/03/31 12:03:06;;;;;;;13.88;2.20;;;17.90;99.90;;;;;;5038301;28;20090;-81
2024/03/31 12:05:34;;;;;;;12.43;2.38;;;17.90;99.90;;;;;;5047020;28;20037;-81
2024/03/31 12:08:00;;;;;;;14.68;2.05;;;18.00;99.90;;;;;;5047956;28;20455;-81
2024/03/31 12:10:27;;;;;;;14.23;1.95;;;;;;;;;;5054312;28;20131;-79
2024/03/31 12:13:07;;;;;;;14.25;2.47;;;17.90;99.90;;;;;;5042811;28;20065;-81
2024/03/31 12:15:33;;;;;;;12.57;2.40;;;15.10;99.90;;;;;;5046489;28;20073;-80
2024/03/31 12:18:00;;;;;;;13.57;2.03;;;;;;;;;;5045130;28;20033;-80
2024/03/31 12:20:26;;;;;;;14.98;2.50;;;17.90;99.90;;;;;;5044858;28;20028;-80
2024/03/31 12:22:54;;;;;;;12.40;2.03;;;;;;;;;;5043014;28;20018;-81
2024/03/31 12:25:20;;;;;;;12.68;1.67;;;;;;;;;;5053151;28;20025;-81
2024/03/31 12:27:47;;;;;;;12.55;2.30;;;17.70;99.90;;;;;;5043618;28;20092;-80
2024/03/31 12:30:13;;;;;;;9.07;1.75;;;17.70;99.90;;;;;;5044321;28;20039;-80
2024/03/31 12:32:40;;;;;;;9.00;2.00;;;17.70;99.90;;;;;;5056347;28;20035;-79
2024/03/31 12:35:06;;;;;;;12.43;1.90;;;17.80;99.90;;;;;;5044948;28;20041;-81
2024/03/31 12:37:37;;;;;;;12.35;1.73;;;18.10;99.90;;;;;;5040733;28;20030;-80
2024/03/31 12:40:06;;;;;;;15.23;2.28;;;18.30;99.90;;;;;;5058524;28;20082;-79
2024/03/31 12:42:38;;;;;;;12.13;2.22;;;18.20;99.90;;;;;;5060538;28;20048;-81
2024/03/31 12:45:06;;;;;;;15.02;2.45;;;18.00;99.90;;;;;;5062027;28;20051;-80
2024/03/31 12:47:33;;;;;;;10.50;1.98;;;17.80;99.90;;;;;;5056152;28;20045;-81
2024/03/31 12:50:00;;;;;;;16.02;2.38;;;17.70;99.90;;;;;;5065076;28;20025;-80
2024/03/31 12:52:30;;;;;;;12.38;2.60;;;17.80;99.90;;;;;;5058419;28;20013;-79
2024/03/31 12:54:56;;;;;;;8.10;1.70;;;;;;;;;;5043038;28;20051;-83
2024/03/31 12:58:13;;;;;;;10.73;1.75;;;17.80;99.90;;;;;;5069582;28;20044;-81
2024/03/31 13:01:54;;;;;;;9.00;1.98;;;17.80;99.90;;;;;;5056649;28;20037;-80
2024/03/31 13:15:51;;;;;;;11.90;2.90;;;17.40;99.90;;;;;;4921874;28;20059;-79
2024/03/31 13:19:39;;;;;;;13.98;2.38;;;17.40;99.90;;;;;;4868207;29;20056;-81
2024/03/31 13:36:50;;;;;;;11.82;2.17;;;17.60;99.90;;;;;;4784639;29;20262;-82
2024/03/31 13:50:33;;;;;;;15.23;3.22;;;17.40;99.90;;;;;;4834057;29;20058;-83
2024/03/31 14:04:20;;;;;;;9.32;1.77;;;17.20;99.90;;;;;;4842338;29;20070;-82
2024/03/31 14:06:47;;;;;;;8.45;1.80;;;17.10;99.90;;;;;;4902529;29;20048;-82
2024/03/31 14:09:14;;;;;;;12.23;1.90;;;17.10;99.90;;;;;;4959529;28;20008;-82
2024/03/31 14:11:40;;;;;;;13.98;2.17;;;;;;;;;;5034124;28;20049;-81
2024/03/31 14:14:06;;;;;;;12.18;2.20;;;;;;;;;;5068633;28;20029;-82
2024/03/31 14:16:33;;;;;;;14.52;2.25;;;;;;;;;;5071167;28;20051;-82
2024/03/31 14:18:59;;;;;;;7.75;1.70;;;;;;;;;;5075208;28;20029;-83
2024/03/31 14:21:25;;;;;;;11.95;2.25;;;;;;;;;;5068562;28;20086;-83
2024/03/31 14:23:54;;;;;;;8.38;1.70;;;;;;;;;;5069402;28;20018;-82
2024/03/31 14:26:20;;;;;;;7.15;1.77;;;;;;;;;;5067739;28;20016;-82
2024/03/31 14:28:47;;;;;;;9.90;2.72;;;15.70;99.90;;;;;;5061792;28;20014;-84
2024/03/31 14:31:13;;;;;;;7.43;1.42;;;;;;;;;;5070436;28;20073;-82
2024/03/31 14:33:40;;;;;;;7.97;1.65;;;;;;;;;;5069621;28;20048;-85
2024/03/31 14:36:08;;;;;;;7.10;1.42;;;;;;;;;;5064525;28;20121;-83
2024/03/31 14:38:34;;;;;;;11.18;1.85;;;16.60;99.90;;;;;;5069236;28;20013;-81
2024/03/31 14:41:01;;;;;;;6.57;1.45;;;;;;;;;;5068830;28;20037;-82
2024/03/31 14:43:27;;;;;;;13.65;2.30;;;16.70;99.90;;;;;;5063302;28;20128;-84
2024/03/31 14:46:01;;;;;;;7.65;1.58;;;16.80;99.90;;;;;;5068770;28;20092;-82
2024/03/31 14:48:29;;;;;;;4.97;1.40;;;;;;;;;;5073127;28;20081;-82
2024/03/31 14:50:55;;;;;;;8.30;1.33;;;17.00;99.90;;;;;;5063553;28;20037;-82
2024/03/31 14:53:22;;;;;;;5.20;0.98;;;;;;;;;;5065391;28;20028;-83
2024/03/31 14:55:51;;;;;;;3.38;0.98;;;16.90;99.90;;;;;;5057765;28;20045;-82
2024/03/31 14:58:18;;;;;;;8.60;1.10;;;;;;;;;;5067629;28;20017;-82
2024/03/31 15:00:45;;;;;;;7.20;1.88;;;;;;;;;;5066918;28;20034;-80
2024/03/31 15:03:11;;;;;;;12.40;4.15;;;;;;;;;;5069500;28;20144;-80
2024/03/31 15:05:44;;;;;;;9.18;1.73;;;16.50;99.90;;;;;;5069066;28;20032;-81
2024/03/31 15:08:11;;;;;;;5.47;0.95;;;16.40;99.90;;;;;;5073297;28;20020;-81
2024/03/31 15:10:37;;;;;;;6.07;1.60;;;;;;;;;;5072091;28;20013;-81
2024/03/31 15:13:03;;;;;;;7.32;1.10;;;16.30;99.90;;;;;;5062103;28;20076;-82
2024/03/31 15:15:29;;;;;;;5.45;1.02;;;16.50;99.90;;;;;;5070112;28;20065;-81
2024/03/31 15:17:55;;;;;;;5.30;1.08;;;;;;;;;;5062306;28;20028;-81
2024/03/31 15:20:21;;;;;;;8.07;1.38;;;;;;;;;;5073602;28;20107;-82
2024/03/31 15:22:47;;;;;;;4.03;1.17;;;16.20;99.90;;;;;;5064939;28;20052;-80
2024/03/31 15:25:13;;;;;;;5.70;1.23;;;13.80;99.90;;;;;;5068471;28;20013;-81
2024/03/31 15:27:39;;;;;;;7.75;1.52;;;;;;;;;;5060355;28;20029;-81
2024/03/31 15:30:06;;;;;;;7.70;1.40;;;16.20;99.90;;;;;;5066048;28;20031;-82
2024/03/31 15:32:33;;;;;;;5.03;1.52;;;;;;;;;;5061613;28;20022;-81
2024/03/31 15:34:59;;;;;;;8.43;1.20;;;;;;;;;;5063257;28;20038;-81
2024/03/31 15:37:25;;;;;;;7.97;1.35;;;;;;;;;;5065116;28;20048;-81
2024/03/31 15:39:51;;;;;;;4.20;1.20;;;;;;;;;;5059322;28;20044;-81
2024/03/31 15:42:17;;;;;;;6.10;1.33;;;;;;;;;;5063199;28;20031;-81
2024/03/31 15:44:43;;;;;;;2.83;1.05;;;;;;;;;;5066066;28;20044;-81
2024/03/31 15:47:09;;;;;;;7.15;1.33;;;;;;;;;;5064297;28;20060;-80
2024/03/31 15:49:38;;;;;;;4.75;0.98;;;15.90;99.90;;;;;;5062971;28;20017;-80
2024/03/31 15:52:04;;;;;;;4.75;1.25;;;15.90;99.90;;;;;;5054911;28;20037;-81
2024/03/31 15:54:30;;;;;;;6.65;1.60;;;;;;;;;;5053632;28;20033;-80
2024/03/31 15:56:56;;;;;;;2.80;1.00;;;;;;;;;;5056202;28;20125;-80
2024/03/31 15:59:23;;;;;;;5.90;1.40;;;;;;;;;;5060572;28;20024;-80
2024/03/31 16:01:49;;;;;;;4.82;1.48;;;15.60;99.90;;;;;;5057164;28;20015;-81
2024/03/31 16:04:15;;;;;;;3.10;0.90;;;;;;;;;;5065335;28;20075;-81
2024/03/31 16:06:41;;;;;;;4.57;0.95;;;;;;;;;;5058228;28;20517;-81
2024/03/31 16:09:07;;;;;;;4.35;0.93;;;;;;;;;;5068434;28;20033;-81
2024/03/31 16:11:33;;;;;;;2.08;0.80;;;;;;;;;;5059804;28;20096;-81
2024/03/31 16:13:59;;;;;;;3.47;1.30;;;;;;;;;;5067042;28;20017;-81
2024/03/31 16:16:25;;;;;;;7.57;1.38;;;15.60;99.90;;;;;;5060623;28;20151;-80
2024/03/31 16:18:51;;;;;;;3.53;1.23;;;;;;;;;;5059240;28;20056;-81
2024/03/31 16:21:17;;;;;;;3.17;1.08;;;15.60;99.90;;;;;;5061294;28;20039;-80
2024/03/31 16:23:43;;;;;;;7.28;1.40;;;;;;;;;;5055340;28;20100;-84
2024/03/31 16:26:10;;;;;;;3.67;0.90;;;;;;;;;;5064471;28;20040;-81
2024/03/31 16:28:36;;;;;;;4.82;1.30;;;;;;;;;;5061439;28;20029;-81
2024/03/31 16:31:02;;;;;;;2.72;1.20;;;;;;;;;;5059349;28;20017;-81
2024/03/31 16:33:28;;;;;;;4.80;1.33;;;15.70;99.90;;;;;;5063622;28;20032;-81
2024/03/31 16:35:54;;;;;;;2.38;0.90;;;15.60;99.90;;;;;;5054012;28;20038;-78
2024/03/31 16:38:20;;;;;;;5.88;0.98;;;;;;;;;;5061313;28;20117;-81
2024/03/31 16:40:46;;;;;;;3.95;0.82;;;;;;;;;;5062137;28;20029;-81
2024/03/31 16:43:12;;;;;;;8.88;1.50;;;;;;;;;;5060553;28;20025;-81
2024/03/31 16:45:38;;;;;;;4.07;1.27;;;;;;;;;;5046538;28;20028;-81
2024/03/31 16:48:04;;;;;;;4.10;1.90;;;15.50;99.90;;;;;;5064329;28;20015;-80
2024/03/31 16:50:30;;;;;;;4.28;1.33;;;;;;;;;;5060744;28;20056;-81
2024/03/31 16:52:57;;;;;;;2.10;0.80;;;;;;;;;;5057299;28;20021;-81
2024/03/31 16:55:22;;;;;;;3.35;0.82;;;15.50;99.90;;;;;;5059588;28;20051;-82
2024/03/31 16:57:48;;;;;;;5.82;1.00;;;;;;;;;;5058176;28;20041;-82
2024/03/31 17:00:14;;;;;;;7.03;2.40;;;15.40;99.90;;;;;;5059060;28;20029;-81
2024/03/31 17:02:40;;;;;;;5.57;2.55;;;;;;;;;;5064057;28;20058;-81
2024/03/31 17:05:06;;;;;;;5.85;1.83;;;15.40;99.90;;;;;;5062000;28;20033;-80
2024/03/31 17:07:32;;;;;;;4.60;2.03;;;15.40;99.90;;;;;;5061282;28;20009;-81
2024/03/31 17:09:58;;;;;;;8.02;2.42;;;15.30;99.90;;;;;;5066593;28;20064;-80
2024/03/31 17:12:24;;;;;;;5.60;1.98;;;;;;;;;;5069067;28;20036;-80
2024/03/31 17:14:50;;;;;;;3.63;1.40;;;15.30;99.90;;;;;;5061974;28;20017;-81
2024/03/31 17:17:16;;;;;;;2.63;1.23;;;;;;;;;;5070008;28;20063;-82
2024/03/31 17:19:42;;;;;;;8.00;2.05;;;;;;;;;;5062330;28;20480;-81
2024/03/31 17:22:08;;;;;;;3.35;1.38;;;;;;;;;;5063120;28;20021;-82
2024/03/31 17:24:34;;;;;;;2.78;1.40;;;15.10;99.90;;;;;;5067501;28;20013;-81
2024/03/31 17:27:00;;;;;;;5.57;1.38;;;15.00;99.90;;;;;;5061605;28;20039;-81
2024/03/31 17:29:26;;;;;;;4.70;1.27;;;15.10;99.90;;;;;;5061154;28;20037;-81
2024/03/31 17:31:52;;;;;;;3.05;1.17;;;;;;;;;;5064069;28;20029;-81
2024/03/31 17:34:18;;;;;;;5.78;1.75;;;15.00;99.90;;;;;;5052193;28;20033;-81
2024/03/31 17:36:44;;;;;;;5.13;1.40;;;15.00;99.90;;;;;;5057132;28;20049;-82
2024/03/31 17:39:12;;;;;;;4.25;1.60;;;;;;;;;;5058929;28;20029;-82
2024/03/31 17:41:38;;;;;;;2.97;1.23;;;14.90;99.90;;;;;;5057447;28;20101;-81
2024/03/31 17:44:04;;;;;;;3.90;1.48;;;14.80;99.90;;;;;;5051809;28;20021;-80
2024/03/31 17:46:30;;;;;;;4.05;1.38;;;;;;;;;;5064356;28;20018;-81
2024/03/31 17:48:59;;;;;;;8.43;1.40;;;14.80;99.90;;;;;;5060315;28;20043;-83
2024/03/31 17:51:25;;;;;;;3.70;1.20;;;14.70;99.90;;;;;;5056228;28;20028;-82
2024/03/31 17:53:52;;;;;;;8.35;1.67;;;14.70;99.90;;;;;;5060262;28;20022;-82
2024/03/31 17:56:18;;;;;;;4.93;1.60;;;;;;;;;;5056896;28;20043;-80
2024/03/31 17:58:45;;;;;;;3.97;1.63;;;14.70;99.90;;;;;;5058223;28;20038;-81
2024/03/31 18:01:15;;;;;;;5.22;1.75;;;14.70;99.90;;;;;;5059791;28;20036;-81
2024/03/31 18:03:42;;;;;;;4.80;2.00;;;14.70;99.90;;;;;;5058959;28;20204;-81
2024/03/31 18:06:09;;;;;;;6.63;2.50;;;;;;;;;;5061726;28;20065;-83
2024/03/31 18:08:35;;;;;;;6.43;2.50;;;;;;;;;;5060177;28;20081;-81
2024/03/31 18:11:03;;;;;;;44.42;20.17;;;14.90;99.90;;;;;;5061603;28;20028;-81
2024/03/31 18:13:29;;;;;;;16.50;7.28;;;;;;;;;;5058205;28;20037;-81
2024/03/31 18:16:06;;;;;;;12.32;3.50;;;14.80;99.90;;;;;;5057037;28;20033;-82
2024/03/31 18:18:34;;;;;;;8.27;2.70;;;14.10;99.90;;;;;;5061466;28;20014;-81
2024/03/31 18:21:14;;;;;;;7.15;1.52;;;13.80;99.90;;;;;;5066583;28;20040;-82
2024/03/31 18:23:42;;;;;;;5.78;1.50;;;13.40;99.90;;;;;;5062074;28;20025;-81
2024/03/31 18:26:13;;;;;;;3.22;1.30;;;13.20;99.90;;;;;;5068477;28;20064;-82
2024/03/31 18:28:39;;;;;;;2.85;1.27;;;;;;;;;;5064755;28;20028;-82
2024/03/31 18:31:07;;;;;;;1.85;1.00;;;12.90;99.90;;;;;;5064975;28;20081;-82
2024/03/31 18:33:40;;;;;;;6.63;1.48;;;12.60;99.90;;;;;;5068904;28;20051;-82
2024/03/31 18:36:28;;;;;;;1.75;0.80;;;12.20;99.90;;;;;;5062182;28;20147;-82
2024/03/31 18:38:55;;;;;;;2.25;1.00;;;;;;;;;;5064300;28;20037;-82
